sensor_id;sensor_type;location;lat;lon;timestamp;pressure;altitude;pressure_sealevel;temperature;humidity
43741;BME280;29352;48.708;9.290;2023-09-30T00:01:20;98645.97;;;13.21;64.80
43741;BME280;29352;48.708;9.290;2023-09-30T00:03:47;98638.00;;;13.40;63.87
43741;BME280;29352;48.708;9.290;2023-09-30T00:06:13;98634.78;;;13.56;63.78
43741;BME280;29352;48.708;9.290;2023-09-30T00:08:38;98640.16;;;13.56;63.88
43741;BME280;29352;48.708;9.290;2023-09-30T00:11:07;98643.03;;;13.30;64.61
43741;BME280;29352;48.708;9.290;2023-09-30T00:13:34;98640.22;;;13.49;64.01
43741;BME280;29352;48.708;9.290;2023-09-30T00:16:00;98636.28;;;13.52;63.95
43741;BME280;29352;48.708;9.290;2023-09-30T00:18:25;98637.78;;;13.73;63.61
43741;BME280;29352;48.708;9.290;2023-09-30T00:20:51;98639.88;;;13.64;62.99
43741;BME280;29352;48.708;9.290;2023-09-30T00:23:17;98638.63;;;13.42;63.86
43741;BME280;29352;48.708;9.290;2023-09-30T00:25:43;98647.38;;;13.24;64.12
43741;BME280;29352;48.708;9.290;2023-09-30T00:28:09;98644.91;;;13.22;64.62
43741;BME280;29352;48.708;9.290;2023-09-30T00:30:34;98638.25;;;13.00;64.51
43741;BME280;29352;48.708;9.290;2023-09-30T00:33:00;98632.50;;;12.90;65.26
43741;BME280;29352;48.708;9.290;2023-09-30T00:35:25;98642.03;;;12.79;65.36
43741;BME280;29352;48.708;9.290;2023-09-30T00:37:51;98641.13;;;12.92;65.19
43741;BME280;29352;48.708;9.290;2023-09-30T00:40:16;98643.44;;;12.95;65.56
43741;BME280;29352;48.708;9.290;2023-09-30T00:42:42;98649.41;;;12.97;65.07
43741;BME280;29352;48.708;9.290;2023-09-30T00:45:08;98648.72;;;12.50;65.42
43741;BME280;29352;48.708;9.290;2023-09-30T00:47:35;98645.25;;;12.43;65.38
43741;BME280;29352;48.708;9.290;2023-09-30T00:50:03;98650.44;;;12.38;65.79
43741;BME280;29352;48.708;9.290;2023-09-30T00:52:33;98651.63;;;12.48;64.99
43741;BME280;29352;48.708;9.290;2023-09-30T00:55:01;98650.63;;;12.29;66.44
43741;BME280;29352;48.708;9.290;2023-09-30T00:57:30;98653.66;;;12.53;65.99
43741;BME280;29352;48.708;9.290;2023-09-30T00:59:57;98648.31;;;12.53;65.71
43741;BME280;29352;48.708;9.290;2023-09-30T01:02:23;98646.47;;;12.53;66.25
43741;BME280;29352;48.708;9.290;2023-09-30T01:04:50;98644.25;;;12.30;66.46
43741;BME280;29352;48.708;9.290;2023-09-30T01:07:15;98643.44;;;12.30;65.68
43741;BME280;29352;48.708;9.290;2023-09-30T01:09:41;98651.69;;;12.08;65.86
43741;BME280;29352;48.708;9.290;2023-09-30T01:12:07;98657.44;;;11.85;66.41
43741;BME280;29352;48.708;9.290;2023-09-30T01:14:35;98658.09;;;11.74;67.02
43741;BME280;29352;48.708;9.290;2023-09-30T01:17:03;98654.41;;;11.62;67.04
43741;BME280;29352;48.708;9.290;2023-09-30T01:19:29;98654.81;;;11.79;66.99
43741;BME280;29352;48.708;9.290;2023-09-30T01:21:56;98656.63;;;11.92;66.23
43741;BME280;29352;48.708;9.290;2023-09-30T01:24:29;98648.38;;;12.26;65.95
43741;BME280;29352;48.708;9.290;2023-09-30T01:26:56;98648.59;;;12.31;66.24
43741;BME280;29352;48.708;9.290;2023-09-30T01:29:22;98647.78;;;11.98;66.70
43741;BME280;29352;48.708;9.290;2023-09-30T01:31:48;98645.09;;;12.11;66.69
43741;BME280;29352;48.708;9.290;2023-09-30T01:34:15;98644.88;;;12.26;65.67
43741;BME280;29352;48.708;9.290;2023-09-30T01:36:42;98666.09;;;12.07;66.54
43741;BME280;29352;48.708;9.290;2023-09-30T01:39:12;98669.19;;;11.91;67.12
43741;BME280;29352;48.708;9.290;2023-09-30T01:41:39;98666.91;;;12.08;66.47
43741;BME280;29352;48.708;9.290;2023-09-30T01:44:06;98668.38;;;12.11;65.68
43741;BME280;29352;48.708;9.290;2023-09-30T01:46:33;98662.78;;;12.05;66.54
43741;BME280;29352;48.708;9.290;2023-09-30T01:48:58;98663.53;;;12.59;66.01
43741;BME280;29352;48.708;9.290;2023-09-30T01:51:24;98674.13;;;12.01;67.14
43741;BME280;29352;48.708;9.290;2023-09-30T01:53:50;98667.09;;;12.13;67.02
43741;BME280;29352;48.708;9.290;2023-09-30T01:56:16;98664.00;;;12.36;65.88
43741;BME280;29352;48.708;9.290;2023-09-30T01:58:41;98660.75;;;12.27;66.07
43741;BME280;29352;48.708;9.290;2023-09-30T02:01:07;98652.41;;;12.62;65.43
43741;BME280;29352;48.708;9.290;2023-09-30T02:03:33;98660.16;;;12.84;64.63
43741;BME280;29352;48.708;9.290;2023-09-30T02:05:59;98658.66;;;12.29;65.06
43741;BME280;29352;48.708;9.290;2023-09-30T02:08:25;98659.28;;;12.38;65.45
43741;BME280;29352;48.708;9.290;2023-09-30T02:10:51;98661.50;;;12.48;65.32
43741;BME280;29352;48.708;9.290;2023-09-30T02:13:17;98647.53;;;12.39;65.13
43741;BME280;29352;48.708;9.290;2023-09-30T02:15:43;98646.56;;;12.07;65.97
43741;BME280;29352;48.708;9.290;2023-09-30T02:18:09;98649.66;;;12.17;65.21
43741;BME280;29352;48.708;9.290;2023-09-30T02:20:36;98659.53;;;11.97;66.64
43741;BME280;29352;48.708;9.290;2023-09-30T02:23:09;98667.31;;;11.39;67.62
43741;BME280;29352;48.708;9.290;2023-09-30T02:25:39;98673.84;;;10.68;68.44
43741;BME280;29352;48.708;9.290;2023-09-30T02:28:05;98668.91;;;10.65;67.81
43741;BME280;29352;48.708;9.290;2023-09-30T02:30:31;98675.78;;;10.18;70.17
43741;BME280;29352;48.708;9.290;2023-09-30T02:32:57;98679.38;;;10.32;69.29
43741;BME280;29352;48.708;9.290;2023-09-30T02:35:22;98684.06;;;10.58;68.65
43741;BME280;29352;48.708;9.290;2023-09-30T02:37:49;98684.09;;;10.30;68.88
43741;BME280;29352;48.708;9.290;2023-09-30T02:40:15;98671.19;;;10.33;68.78
43741;BME280;29352;48.708;9.290;2023-09-30T02:42:42;98677.47;;;10.54;69.07
43741;BME280;29352;48.708;9.290;2023-09-30T02:45:10;98680.13;;;10.26;69.30
43741;BME280;29352;48.708;9.290;2023-09-30T02:47:38;98684.75;;;10.73;69.08
43741;BME280;29352;48.708;9.290;2023-09-30T02:50:08;98687.88;;;10.83;67.71
43741;BME280;29352;48.708;9.290;2023-09-30T02:52:36;98694.59;;;10.73;69.15
43741;BME280;29352;48.708;9.290;2023-09-30T02:55:02;98687.00;;;11.24;69.65
43741;BME280;29352;48.708;9.290;2023-09-30T02:57:28;98691.31;;;11.25;68.28
43741;BME280;29352;48.708;9.290;2023-09-30T02:59:53;98677.31;;;11.30;68.66
43741;BME280;29352;48.708;9.290;2023-09-30T03:02:24;98674.44;;;11.18;68.16
43741;BME280;29352;48.708;9.290;2023-09-30T03:04:49;98686.28;;;11.02;68.37
43741;BME280;29352;48.708;9.290;2023-09-30T03:07:18;98693.88;;;10.99;68.56
43741;BME280;29352;48.708;9.290;2023-09-30T03:09:44;98696.41;;;11.13;68.29
43741;BME280;29352;48.708;9.290;2023-09-30T03:12:11;98694.44;;;11.35;67.94
43741;BME280;29352;48.708;9.290;2023-09-30T03:14:37;98702.72;;;11.80;67.10
43741;BME280;29352;48.708;9.290;2023-09-30T03:17:02;98706.00;;;11.69;67.76
43741;BME280;29352;48.708;9.290;2023-09-30T03:19:28;98710.72;;;11.41;68.57
43741;BME280;29352;48.708;9.290;2023-09-30T03:21:54;98711.56;;;11.88;67.66
43741;BME280;29352;48.708;9.290;2023-09-30T03:24:19;98718.78;;;11.80;67.54
43741;BME280;29352;48.708;9.290;2023-09-30T03:26:46;98709.31;;;11.84;67.49
43741;BME280;29352;48.708;9.290;2023-09-30T03:29:11;98711.97;;;12.11;67.14
43741;BME280;29352;48.708;9.290;2023-09-30T03:31:37;98715.91;;;11.75;68.56
43741;BME280;29352;48.708;9.290;2023-09-30T03:34:03;98709.72;;;11.88;67.86
43741;BME280;29352;48.708;9.290;2023-09-30T03:36:29;98704.56;;;12.13;67.29
43741;BME280;29352;48.708;9.290;2023-09-30T03:38:55;98707.47;;;11.72;68.41
43741;BME280;29352;48.708;9.290;2023-09-30T03:41:22;98714.25;;;12.01;67.38
43741;BME280;29352;48.708;9.290;2023-09-30T03:43:47;98710.13;;;12.12;66.98
43741;BME280;29352;48.708;9.290;2023-09-30T03:46:14;98710.56;;;12.15;66.97
43741;BME280;29352;48.708;9.290;2023-09-30T03:48:41;98701.69;;;11.81;68.06
43741;BME280;29352;48.708;9.290;2023-09-30T03:51:12;98687.28;;;11.96;68.40
43741;BME280;29352;48.708;9.290;2023-09-30T03:53:42;98676.00;;;12.20;67.93
43741;BME280;29352;48.708;9.290;2023-09-30T03:56:08;98679.88;;;11.78;68.53
43741;BME280;29352;48.708;9.290;2023-09-30T03:58:33;98672.84;;;12.37;67.33
43741;BME280;29352;48.708;9.290;2023-09-30T04:00:59;98677.41;;;12.03;67.10
43741;BME280;29352;48.708;9.290;2023-09-30T04:03:29;98669.41;;;11.63;67.18
43741;BME280;29352;48.708;9.290;2023-09-30T04:05:54;98670.22;;;11.64;67.19
43741;BME280;29352;48.708;9.290;2023-09-30T04:08:20;98684.22;;;11.72;67.21
43741;BME280;29352;48.708;9.290;2023-09-30T04:10:47;98677.84;;;12.00;65.90
43741;BME280;29352;48.708;9.290;2023-09-30T04:13:12;98677.25;;;10.97;69.30
43741;BME280;29352;48.708;9.290;2023-09-30T04:15:38;98679.47;;;11.41;68.50
43741;BME280;29352;48.708;9.290;2023-09-30T04:18:05;98689.47;;;11.32;68.56
43741;BME280;29352;48.708;9.290;2023-09-30T04:20:31;98704.97;;;11.02;69.24
43741;BME280;29352;48.708;9.290;2023-09-30T04:22:57;98704.69;;;11.32;68.88
43741;BME280;29352;48.708;9.290;2023-09-30T04:25:24;98703.28;;;11.43;69.01
43741;BME280;29352;48.708;9.290;2023-09-30T04:27:50;98695.75;;;11.79;68.29
43741;BME280;29352;48.708;9.290;2023-09-30T04:30:18;98698.16;;;11.34;68.68
43741;BME280;29352;48.708;9.290;2023-09-30T04:32:44;98701.06;;;11.53;67.52
43741;BME280;29352;48.708;9.290;2023-09-30T04:35:10;98706.28;;;11.13;68.17
43741;BME280;29352;48.708;9.290;2023-09-30T04:37:37;98700.53;;;11.09;70.19
43741;BME280;29352;48.708;9.290;2023-09-30T04:40:07;98709.47;;;11.56;67.79
43741;BME280;29352;48.708;9.290;2023-09-30T04:42:47;98708.03;;;11.47;67.50
43741;BME280;29352;48.708;9.290;2023-09-30T04:45:14;98716.63;;;11.36;68.30
43741;BME280;29352;48.708;9.290;2023-09-30T04:47:45;98731.66;;;10.89;69.68
43741;BME280;29352;48.708;9.290;2023-09-30T04:50:11;98728.44;;;11.07;69.20
43741;BME280;29352;48.708;9.290;2023-09-30T04:52:38;98735.19;;;11.57;68.20
43741;BME280;29352;48.708;9.290;2023-09-30T04:55:06;98735.16;;;11.38;68.94
43741;BME280;29352;48.708;9.290;2023-09-30T04:57:32;98722.88;;;11.63;67.58
43741;BME280;29352;48.708;9.290;2023-09-30T04:59:58;98723.22;;;11.40;68.62
43741;BME280;29352;48.708;9.290;2023-09-30T05:02:24;98731.31;;;11.67;67.94
43741;BME280;29352;48.708;9.290;2023-09-30T05:04:51;98728.66;;;12.00;67.00
43741;BME280;29352;48.708;9.290;2023-09-30T05:07:17;98734.19;;;11.65;67.58
43741;BME280;29352;48.708;9.290;2023-09-30T05:09:43;98746.31;;;11.74;67.96
43741;BME280;29352;48.708;9.290;2023-09-30T05:12:08;98758.88;;;11.80;67.92
43741;BME280;29352;48.708;9.290;2023-09-30T05:14:35;98750.44;;;11.70;67.81
43741;BME280;29352;48.708;9.290;2023-09-30T05:17:02;98751.41;;;11.49;68.83
43741;BME280;29352;48.708;9.290;2023-09-30T05:19:29;98757.19;;;11.53;69.15
43741;BME280;29352;48.708;9.290;2023-09-30T05:21:57;98750.88;;;11.94;68.10
43741;BME280;29352;48.708;9.290;2023-09-30T05:24:22;98749.03;;;12.01;68.14
43741;BME280;29352;48.708;9.290;2023-09-30T05:26:48;98747.56;;;11.92;67.97
43741;BME280;29352;48.708;9.290;2023-09-30T05:29:13;98753.31;;;11.62;68.06
43741;BME280;29352;48.708;9.290;2023-09-30T05:31:39;98756.19;;;11.67;68.44
43741;BME280;29352;48.708;9.290;2023-09-30T05:34:04;98752.47;;;11.75;68.52
43741;BME280;29352;48.708;9.290;2023-09-30T05:36:30;98747.63;;;12.25;67.75
43741;BME280;29352;48.708;9.290;2023-09-30T05:38:55;98744.69;;;12.13;67.42
43741;BME280;29352;48.708;9.290;2023-09-30T05:41:21;98742.22;;;11.92;68.41
43741;BME280;29352;48.708;9.290;2023-09-30T05:43:47;98734.81;;;11.80;68.49
43741;BME280;29352;48.708;9.290;2023-09-30T05:46:12;98732.16;;;12.07;67.74
43741;BME280;29352;48.708;9.290;2023-09-30T05:48:40;98731.56;;;12.18;67.37
43741;BME280;29352;48.708;9.290;2023-09-30T05:51:07;98731.56;;;12.38;67.02
43741;BME280;29352;48.708;9.290;2023-09-30T05:53:32;98728.22;;;12.56;66.91
43741;BME280;29352;48.708;9.290;2023-09-30T05:55:58;98732.97;;;12.41;67.79
43741;BME280;29352;48.708;9.290;2023-09-30T05:58:25;98732.56;;;12.44;67.90
43741;BME280;29352;48.708;9.290;2023-09-30T06:00:52;98745.75;;;12.32;68.41
43741;BME280;29352;48.708;9.290;2023-09-30T06:03:19;98749.22;;;11.99;69.51
43741;BME280;29352;48.708;9.290;2023-09-30T06:05:46;98752.75;;;12.26;69.81
43741;BME280;29352;48.708;9.290;2023-09-30T06:08:14;98754.59;;;12.46;69.12
43741;BME280;29352;48.708;9.290;2023-09-30T06:10:41;98749.06;;;13.12;67.75
43741;BME280;29352;48.708;9.290;2023-09-30T06:13:11;98747.47;;;12.91;67.34
43741;BME280;29352;48.708;9.290;2023-09-30T06:15:40;98758.06;;;12.66;67.61
43741;BME280;29352;48.708;9.290;2023-09-30T06:18:08;98757.78;;;13.01;67.48
43741;BME280;29352;48.708;9.290;2023-09-30T06:20:40;98767.88;;;12.99;66.73
43741;BME280;29352;48.708;9.290;2023-09-30T06:23:06;98785.41;;;12.82;67.53
43741;BME280;29352;48.708;9.290;2023-09-30T06:25:32;98779.63;;;12.98;67.32
43741;BME280;29352;48.708;9.290;2023-09-30T06:27:58;98780.06;;;12.95;67.21
43741;BME280;29352;48.708;9.290;2023-09-30T06:30:24;98787.44;;;13.06;66.20
43741;BME280;29352;48.708;9.290;2023-09-30T06:32:56;98788.09;;;12.95;67.01
43741;BME280;29352;48.708;9.290;2023-09-30T06:35:23;98784.44;;;12.69;67.21
43741;BME280;29352;48.708;9.290;2023-09-30T06:37:48;98789.28;;;13.12;66.25
43741;BME280;29352;48.708;9.290;2023-09-30T06:40:15;98793.84;;;13.05;66.51
43741;BME280;29352;48.708;9.290;2023-09-30T06:42:40;98790.09;;;13.13;66.63
43741;BME280;29352;48.708;9.290;2023-09-30T06:45:08;98797.91;;;13.21;66.68
43741;BME280;29352;48.708;9.290;2023-09-30T06:47:36;98794.19;;;13.22;66.60
43741;BME280;29352;48.708;9.290;2023-09-30T06:50:08;98790.06;;;13.64;65.53
43741;BME280;29352;48.708;9.290;2023-09-30T06:52:38;98792.88;;;14.14;64.93
43741;BME280;29352;48.708;9.290;2023-09-30T06:55:07;98790.66;;;14.98;63.97
43741;BME280;29352;48.708;9.290;2023-09-30T06:57:37;98798.16;;;15.63;62.74
43741;BME280;29352;48.708;9.290;2023-09-30T07:00:10;98804.69;;;16.27;61.85
43741;BME280;29352;48.708;9.290;2023-09-30T07:02:39;98805.78;;;16.85;60.32
43741;BME280;29352;48.708;9.290;2023-09-30T07:05:09;98811.88;;;17.16;59.44
43741;BME280;29352;48.708;9.290;2023-09-30T07:07:36;98810.69;;;16.53;59.81
43741;BME280;29352;48.708;9.290;2023-09-30T07:10:03;98802.13;;;16.91;59.04
43741;BME280;29352;48.708;9.290;2023-09-30T07:12:30;98797.13;;;16.60;60.08
43741;BME280;29352;48.708;9.290;2023-09-30T07:14:57;98789.16;;;16.88;59.11
43741;BME280;29352;48.708;9.290;2023-09-30T07:17:24;98797.44;;;16.40;59.53
43741;BME280;29352;48.708;9.290;2023-09-30T07:19:49;98796.50;;;16.22;60.04
43741;BME280;29352;48.708;9.290;2023-09-30T07:22:15;98787.28;;;16.53;59.70
43741;BME280;29352;48.708;9.290;2023-09-30T07:24:40;98788.28;;;17.23;58.03
43741;BME280;29352;48.708;9.290;2023-09-30T07:27:06;98803.88;;;17.61;57.33
43741;BME280;29352;48.708;9.290;2023-09-30T07:29:32;98809.72;;;17.30;57.43
43741;BME280;29352;48.708;9.290;2023-09-30T07:31:58;98808.03;;;16.88;58.50
43741;BME280;29352;48.708;9.290;2023-09-30T07:34:23;98815.16;;;16.47;59.45
43741;BME280;29352;48.708;9.290;2023-09-30T07:36:49;98821.50;;;16.88;58.63
43741;BME280;29352;48.708;9.290;2023-09-30T07:39:14;98828.16;;;16.62;58.67
43741;BME280;29352;48.708;9.290;2023-09-30T07:41:39;98828.66;;;16.71;58.86
43741;BME280;29352;48.708;9.290;2023-09-30T07:44:05;98823.47;;;16.93;58.41
43741;BME280;29352;48.708;9.290;2023-09-30T07:46:31;98818.13;;;16.16;59.07
43741;BME280;29352;48.708;9.290;2023-09-30T07:48:56;98799.25;;;16.81;57.98
43741;BME280;29352;48.708;9.290;2023-09-30T07:51:24;98810.09;;;17.10;57.80
43741;BME280;29352;48.708;9.290;2023-09-30T07:53:49;98810.91;;;17.91;56.46
43741;BME280;29352;48.708;9.290;2023-09-30T07:56:15;98817.13;;;17.91;56.66
43741;BME280;29352;48.708;9.290;2023-09-30T07:58:41;98821.81;;;17.96;55.87
43741;BME280;29352;48.708;9.290;2023-09-30T08:01:08;98839.75;;;17.21;57.37
43741;BME280;29352;48.708;9.290;2023-09-30T08:03:33;98837.00;;;17.45;56.55
43741;BME280;29352;48.708;9.290;2023-09-30T08:06:00;98843.22;;;17.45;56.73
43741;BME280;29352;48.708;9.290;2023-09-30T08:08:26;98841.84;;;17.31;57.22
43741;BME280;29352;48.708;9.290;2023-09-30T08:10:51;98840.34;;;17.76;56.72
43741;BME280;29352;48.708;9.290;2023-09-30T08:13:22;98839.31;;;17.53;56.48
43741;BME280;29352;48.708;9.290;2023-09-30T08:15:49;98828.56;;;18.27;55.12
43741;BME280;29352;48.708;9.290;2023-09-30T08:18:16;98826.78;;;18.50;54.67
43741;BME280;29352;48.708;9.290;2023-09-30T08:20:43;98811.59;;;19.21;53.55
43741;BME280;29352;48.708;9.290;2023-09-30T08:23:08;98805.19;;;18.88;53.94
43741;BME280;29352;48.708;9.290;2023-09-30T08:25:34;98805.63;;;18.80;53.04
43741;BME280;29352;48.708;9.290;2023-09-30T08:27:59;98811.53;;;19.16;53.21
43741;BME280;29352;48.708;9.290;2023-09-30T08:30:25;98824.00;;;20.15;51.17
43741;BME280;29352;48.708;9.290;2023-09-30T08:32:51;98817.94;;;19.54;52.29
43741;BME280;29352;48.708;9.290;2023-09-30T08:35:16;98815.13;;;19.66;51.64
43741;BME280;29352;48.708;9.290;2023-09-30T08:37:42;98816.84;;;17.36;55.25
43741;BME280;29352;48.708;9.290;2023-09-30T08:40:08;98809.31;;;18.74;53.20
43741;BME280;29352;48.708;9.290;2023-09-30T08:42:35;98821.53;;;18.43;53.43
43741;BME280;29352;48.708;9.290;2023-09-30T08:45:01;98824.06;;;18.66;53.49
43741;BME280;29352;48.708;9.290;2023-09-30T08:47:29;98811.56;;;18.99;53.34
43741;BME280;29352;48.708;9.290;2023-09-30T08:49:59;98813.03;;;20.00;51.01
43741;BME280;29352;48.708;9.290;2023-09-30T08:52:32;98806.22;;;19.97;51.42
43741;BME280;29352;48.708;9.290;2023-09-30T08:54:59;98801.97;;;18.91;53.02
43741;BME280;29352;48.708;9.290;2023-09-30T08:57:25;98819.47;;;20.58;50.16
43741;BME280;29352;48.708;9.290;2023-09-30T08:59:53;98811.53;;;20.14;50.92
43741;BME280;29352;48.708;9.290;2023-09-30T09:02:19;98805.16;;;21.83;47.59
43741;BME280;29352;48.708;9.290;2023-09-30T09:04:47;98798.56;;;23.17;46.24
43741;BME280;29352;48.708;9.290;2023-09-30T09:07:14;98800.88;;;24.33;44.10
43741;BME280;29352;48.708;9.290;2023-09-30T09:09:40;98790.69;;;23.16;45.58
43741;BME280;29352;48.708;9.290;2023-09-30T09:12:06;98796.25;;;21.20;48.68
43741;BME280;29352;48.708;9.290;2023-09-30T09:14:43;98788.78;;;23.71;45.81
43741;BME280;29352;48.708;9.290;2023-09-30T09:17:11;98785.47;;;23.79;45.32
43741;BME280;29352;48.708;9.290;2023-09-30T09:19:37;98803.81;;;22.98;45.99
43741;BME280;29352;48.708;9.290;2023-09-30T09:22:03;98801.25;;;23.27;45.99
43741;BME280;29352;48.708;9.290;2023-09-30T09:24:41;98809.06;;;23.49;45.69
43741;BME280;29352;48.708;9.290;2023-09-30T09:27:13;98814.59;;;24.23;44.35
43741;BME280;29352;48.708;9.290;2023-09-30T09:29:42;98806.69;;;23.32;45.17
43741;BME280;29352;48.708;9.290;2023-09-30T09:32:16;98807.50;;;21.39;46.90
43741;BME280;29352;48.708;9.290;2023-09-30T09:34:44;98799.66;;;23.11;44.83
43741;BME280;29352;48.708;9.290;2023-09-30T09:37:24;98809.69;;;20.52;47.96
43741;BME280;29352;48.708;9.290;2023-09-30T09:39:51;98811.59;;;19.65;49.23
43741;BME280;29352;48.708;9.290;2023-09-30T09:44:55;98792.44;;;22.14;45.86
43741;BME280;29352;48.708;9.290;2023-09-30T09:47:23;98785.25;;;21.52;47.47
43741;BME280;29352;48.708;9.290;2023-09-30T09:49:52;98780.00;;;21.25;47.71
43741;BME280;29352;48.708;9.290;2023-09-30T09:52:19;98778.59;;;22.06;46.34
43741;BME280;29352;48.708;9.290;2023-09-30T09:54:46;98775.88;;;22.41;46.48
43741;BME280;29352;48.708;9.290;2023-09-30T09:57:12;98776.97;;;22.35;46.39
43741;BME280;29352;48.708;9.290;2023-09-30T09:59:39;98775.59;;;22.63;45.38
43741;BME280;29352;48.708;9.290;2023-09-30T10:02:10;98777.38;;;22.94;45.11
43741;BME280;29352;48.708;9.290;2023-09-30T10:04:49;98777.97;;;20.95;47.21
43741;BME280;29352;48.708;9.290;2023-09-30T10:07:21;98777.78;;;21.95;46.12
43741;BME280;29352;48.708;9.290;2023-09-30T10:09:52;98770.13;;;21.03;47.47
43741;BME280;29352;48.708;9.290;2023-09-30T10:12:20;98775.03;;;22.00;46.49
43741;BME280;29352;48.708;9.290;2023-09-30T10:14:47;98774.81;;;21.18;47.41
43741;BME280;29352;48.708;9.290;2023-09-30T10:17:12;98782.94;;;22.32;45.87
43741;BME280;29352;48.708;9.290;2023-09-30T10:20:05;98778.03;;;22.39;45.83
43741;BME280;29352;48.708;9.290;2023-09-30T10:22:32;98767.69;;;21.80;46.28
43741;BME280;29352;48.708;9.290;2023-09-30T10:24:59;98751.06;;;23.49;44.24
43741;BME280;29352;48.708;9.290;2023-09-30T10:30:10;98759.69;;;24.05;44.64
43741;BME280;29352;48.708;9.290;2023-09-30T10:40:51;98758.19;;;22.44;45.79
43741;BME280;29352;48.708;9.290;2023-09-30T10:43:30;98759.28;;;21.97;46.06
43741;BME280;29352;48.708;9.290;2023-09-30T10:46:01;98755.47;;;22.39;45.52
43741;BME280;29352;48.708;9.290;2023-09-30T10:51:17;98744.41;;;23.65;43.86
43741;BME280;29352;48.708;9.290;2023-09-30T10:53:55;98743.34;;;23.06;44.68
43741;BME280;29352;48.708;9.290;2023-09-30T10:56:32;98737.72;;;22.77;44.52
43741;BME280;29352;48.708;9.290;2023-09-30T10:58:59;98732.84;;;22.69;43.93
43741;BME280;29352;48.708;9.290;2023-09-30T11:01:32;98738.63;;;22.42;44.89
43741;BME280;29352;48.708;9.290;2023-09-30T11:04:01;98735.84;;;21.55;45.94
43741;BME280;29352;48.708;9.290;2023-09-30T11:06:31;98734.22;;;21.49;45.54
43741;BME280;29352;48.708;9.290;2023-09-30T11:08:59;98730.28;;;21.09;45.94
43741;BME280;29352;48.708;9.290;2023-09-30T11:14:36;98730.81;;;21.01;46.40
43741;BME280;29352;48.708;9.290;2023-09-30T11:17:02;98730.09;;;20.73;46.71
43741;BME280;29352;48.708;9.290;2023-09-30T11:19:56;98722.81;;;20.31;46.51
43741;BME280;29352;48.708;9.290;2023-09-30T11:22:21;98719.66;;;20.45;46.41
43741;BME280;29352;48.708;9.290;2023-09-30T11:24:46;98705.81;;;20.99;46.63
43741;BME280;29352;48.708;9.290;2023-09-30T11:27:12;98709.03;;;20.86;46.55
43741;BME280;29352;48.708;9.290;2023-09-30T11:29:48;98711.47;;;20.40;46.50
43741;BME280;29352;48.708;9.290;2023-09-30T11:32:28;98704.50;;;20.49;46.30
43741;BME280;29352;48.708;9.290;2023-09-30T11:34:54;98711.75;;;20.38;46.41
43741;BME280;29352;48.708;9.290;2023-09-30T11:37:20;98702.59;;;20.49;46.22
43741;BME280;29352;48.708;9.290;2023-09-30T11:39:47;98716.28;;;19.95;47.05
43741;BME280;29352;48.708;9.290;2023-09-30T11:42:17;98709.13;;;21.16;45.09
43741;BME280;29352;48.708;9.290;2023-09-30T11:44:45;98711.88;;;21.21;45.96
43741;BME280;29352;48.708;9.290;2023-09-30T11:47:15;98721.31;;;20.14;46.63
43741;BME280;29352;48.708;9.290;2023-09-30T11:49:43;98727.84;;;19.58;47.88
43741;BME280;29352;48.708;9.290;2023-09-30T11:52:14;98723.09;;;19.44;47.83
43741;BME280;29352;48.708;9.290;2023-09-30T11:54:44;98714.00;;;20.14;46.24
43741;BME280;29352;48.708;9.290;2023-09-30T11:57:15;98703.41;;;20.13;47.10
43741;BME280;29352;48.708;9.290;2023-09-30T11:59:42;98705.97;;;20.24;46.75
43741;BME280;29352;48.708;9.290;2023-09-30T12:02:11;98709.34;;;20.94;45.43
43741;BME280;29352;48.708;9.290;2023-09-30T12:04:38;98709.91;;;20.12;46.91
43741;BME280;29352;48.708;9.290;2023-09-30T12:07:05;98713.53;;;20.22;47.17
43741;BME280;29352;48.708;9.290;2023-09-30T12:09:33;98697.94;;;20.40;46.02
43741;BME280;29352;48.708;9.290;2023-09-30T12:12:03;98709.56;;;20.40;46.87
43741;BME280;29352;48.708;9.290;2023-09-30T12:14:29;98716.38;;;20.95;45.79
43741;BME280;29352;48.708;9.290;2023-09-30T12:16:56;98728.31;;;20.42;46.81
43741;BME280;29352;48.708;9.290;2023-09-30T12:19:22;98720.19;;;20.94;45.83
43741;BME280;29352;48.708;9.290;2023-09-30T12:21:48;98712.22;;;21.66;44.81
43741;BME280;29352;48.708;9.290;2023-09-30T12:24:17;98710.91;;;22.14;43.27
43741;BME280;29352;48.708;9.290;2023-09-30T12:26:50;98703.88;;;21.98;43.14
43741;BME280;29352;48.708;9.290;2023-09-30T12:29:21;98701.91;;;21.47;44.97
43741;BME280;29352;48.708;9.290;2023-09-30T12:31:51;98701.91;;;21.58;44.10
43741;BME280;29352;48.708;9.290;2023-09-30T12:34:17;98710.78;;;21.27;45.40
43741;BME280;29352;48.708;9.290;2023-09-30T12:36:44;98711.97;;;21.67;45.20
43741;BME280;29352;48.708;9.290;2023-09-30T12:39:10;98697.03;;;21.85;44.23
43741;BME280;29352;48.708;9.290;2023-09-30T12:41:41;98704.22;;;21.13;45.20
43741;BME280;29352;48.708;9.290;2023-09-30T12:44:08;98700.28;;;21.72;44.30
43741;BME280;29352;48.708;9.290;2023-09-30T12:46:36;98705.69;;;21.36;44.75
43741;BME280;29352;48.708;9.290;2023-09-30T12:49:06;98706.63;;;20.94;44.98
43741;BME280;29352;48.708;9.290;2023-09-30T12:51:33;98694.16;;;20.98;44.69
43741;BME280;29352;48.708;9.290;2023-09-30T12:54:00;98702.97;;;20.73;45.23
43741;BME280;29352;48.708;9.290;2023-09-30T12:56:26;98698.88;;;21.29;44.83
43741;BME280;29352;48.708;9.290;2023-09-30T12:58:54;98688.09;;;22.05;43.60
43741;BME280;29352;48.708;9.290;2023-09-30T13:01:20;98695.19;;;22.01;43.97
43741;BME280;29352;48.708;9.290;2023-09-30T13:03:47;98702.19;;;22.33;42.64
43741;BME280;29352;48.708;9.290;2023-09-30T13:06:12;98694.06;;;22.07;43.57
43741;BME280;29352;48.708;9.290;2023-09-30T13:08:39;98696.78;;;21.82;43.26
43741;BME280;29352;48.708;9.290;2023-09-30T13:11:04;98687.28;;;22.00;42.82
43741;BME280;29352;48.708;9.290;2023-09-30T13:13:32;98686.69;;;22.28;42.95
43741;BME280;29352;48.708;9.290;2023-09-30T13:16:01;98685.84;;;22.38;42.33
43741;BME280;29352;48.708;9.290;2023-09-30T13:18:31;98680.75;;;21.75;43.93
43741;BME280;29352;48.708;9.290;2023-09-30T13:20:57;98682.06;;;21.52;43.72